Airfield :
LOGIN :

Register | Disclaimer

   EN    FR    IT 

 










Legend :    VFR   Marginal VFR   IFR   Intensive IFR   Very Intensive IFR
Visi :
Ceiling :
>= 8 km
>= 3000ft
5 to 8 km
1000 to 3000 ft
1500m to 5 km
500 to 1000 ft
800 to 1500m
200 to 500 ft
< 800m
< 200 ft
Symbols :   Thunderstorms  Fog  Heavy snow  Heavy precipitations  Wind > 20 kt
SIGMETs :     Misc.  Thunderstorms  Icing  Turbulence  Mountain Waves  Volcanic Ashes






- Airport Elevation : 137 ft


LIPS - Istrana AFB Treviso

CURRENT METAR :
  • 021655Z 07009KT 9999 FEW020CB BKN090 23/19 Q1013 RMK BKN VIS MIN 9999 WIND THR26 02010KT WIND THR08 07011KT BLK BLU

EXPIRED METARs :
  • 021555Z 05011KT 9999 FEW020CB SCT030CB 24/20 Q1012 RMK BKN BKN180 VIS MIN 9999 WIND THR26 01012KT WIND THR08 04013KT BLK BLU
  • 021455Z 03010KT 9999 FEW020CB SCT030 26/18 Q1012 RMK BKN VIS MIN 9999 WIND THR26 36012KT WIND THR08 02010KT BLK BLU

TAF TAF LIPS
Valid from the 02 at 18:00 until the 03 at 03:00 UTC


021700Z 0218/0303 06008KT 9999 SCT030 SCT090
TEMPO 0218/0222 07015KT 5000 SHRA FEW020CB BKN030



MET'MAP, your aeronautical weather chart ! - Copyright ORBIFLY December 2007 - Disclaimer

ORBIFLY MET'MAP TEAM :

Programming & Development : Alexandra Zaïnal
Concept & original design : Baudouin d'Aumeries
Assistance for programming : Marc-Olivier Méhu
Technical & hardware support : Manuel Goepfert

Contact : metmap@orbifly.com




SOURCES & CREDITS :

   NOAA